sensor_id;sensor_type;location;lat;lon;timestamp;P1;durP1;ratioP1;P2;durP2;ratioP2
21733;SDS011;11029;47.820;10.534;2023-06-22T00:01:20;6.72;;;5.00;;
21733;SDS011;11029;47.820;10.534;2023-06-22T00:03:48;9.30;;;4.90;;
21733;SDS011;11029;47.820;10.534;2023-06-22T00:06:15;7.07;;;4.60;;
21733;SDS011;11029;47.820;10.534;2023-06-22T00:08:42;7.88;;;4.07;;
21733;SDS011;11029;47.820;10.534;2023-06-22T00:11:09;7.72;;;3.80;;
21733;SDS011;11029;47.820;10.534;2023-06-22T00:13:37;11.90;;;4.70;;
21733;SDS011;11029;47.820;10.534;2023-06-22T00:16:04;9.63;;;5.03;;
21733;SDS011;11029;47.820;10.534;2023-06-22T00:18:30;10.20;;;4.82;;
21733;SDS011;11029;47.820;10.534;2023-06-22T00:20:58;10.80;;;5.30;;
21733;SDS011;11029;47.820;10.534;2023-06-22T00:23:25;8.90;;;5.28;;
21733;SDS011;11029;47.820;10.534;2023-06-22T00:25:52;9.35;;;5.15;;
21733;SDS011;11029;47.820;10.534;2023-06-22T00:28:19;12.02;;;5.30;;
21733;SDS011;11029;47.820;10.534;2023-06-22T00:30:46;11.38;;;5.10;;
21733;SDS011;11029;47.820;10.534;2023-06-22T00:33:14;9.98;;;4.57;;
21733;SDS011;11029;47.820;10.534;2023-06-22T00:35:42;8.27;;;4.38;;
21733;SDS011;11029;47.820;10.534;2023-06-22T00:38:09;10.50;;;5.15;;
21733;SDS011;11029;47.820;10.534;2023-06-22T00:40:36;11.00;;;5.45;;
21733;SDS011;11029;47.820;10.534;2023-06-22T00:43:03;9.48;;;4.80;;
21733;SDS011;11029;47.820;10.534;2023-06-22T00:45:31;9.55;;;4.50;;
21733;SDS011;11029;47.820;10.534;2023-06-22T00:47:58;8.05;;;5.18;;
21733;SDS011;11029;47.820;10.534;2023-06-22T00:50:27;7.65;;;4.63;;
21733;SDS011;11029;47.820;10.534;2023-06-22T00:53:00;16.67;;;5.63;;
21733;SDS011;11029;47.820;10.534;2023-06-22T00:55:35;8.77;;;5.07;;
21733;SDS011;11029;47.820;10.534;2023-06-22T00:58:07;8.88;;;5.07;;
21733;SDS011;11029;47.820;10.534;2023-06-22T01:00:37;10.68;;;5.65;;
21733;SDS011;11029;47.820;10.534;2023-06-22T01:03:05;9.60;;;5.28;;
21733;SDS011;11029;47.820;10.534;2023-06-22T01:05:36;10.52;;;5.00;;
21733;SDS011;11029;47.820;10.534;2023-06-22T01:11:13;10.27;;;5.18;;
21733;SDS011;11029;47.820;10.534;2023-06-22T01:13:51;12.07;;;5.13;;
21733;SDS011;11029;47.820;10.534;2023-06-22T01:16:29;7.70;;;4.70;;
21733;SDS011;11029;47.820;10.534;2023-06-22T01:19:00;9.55;;;4.97;;
21733;SDS011;11029;47.820;10.534;2023-06-22T01:21:32;7.30;;;5.40;;
21733;SDS011;11029;47.820;10.534;2023-06-22T01:24:11;8.98;;;4.93;;
21733;SDS011;11029;47.820;10.534;2023-06-22T01:29:35;9.45;;;5.28;;
21733;SDS011;11029;47.820;10.534;2023-06-22T01:32:04;10.88;;;5.65;;
21733;SDS011;11029;47.820;10.534;2023-06-22T01:34:35;13.00;;;6.15;;
21733;SDS011;11029;47.820;10.534;2023-06-22T01:37:03;10.20;;;5.93;;
21733;SDS011;11029;47.820;10.534;2023-06-22T01:39:31;9.60;;;4.90;;
21733;SDS011;11029;47.820;10.534;2023-06-22T01:41:58;11.30;;;5.72;;
21733;SDS011;11029;47.820;10.534;2023-06-22T01:44:26;11.20;;;5.40;;
21733;SDS011;11029;47.820;10.534;2023-06-22T01:46:54;9.43;;;4.97;;
21733;SDS011;11029;47.820;10.534;2023-06-22T01:49:21;8.23;;;4.97;;
21733;SDS011;11029;47.820;10.534;2023-06-22T01:51:48;10.02;;;5.60;;
21733;SDS011;11029;47.820;10.534;2023-06-22T01:54:15;11.40;;;6.50;;
21733;SDS011;11029;47.820;10.534;2023-06-22T01:56:42;8.65;;;5.00;;
21733;SDS011;11029;47.820;10.534;2023-06-22T01:59:17;7.18;;;4.82;;
21733;SDS011;11029;47.820;10.534;2023-06-22T02:02:09;9.32;;;5.03;;
21733;SDS011;11029;47.820;10.534;2023-06-22T02:04:43;8.75;;;5.20;;
21733;SDS011;11029;47.820;10.534;2023-06-22T02:07:21;10.30;;;5.63;;
21733;SDS011;11029;47.820;10.534;2023-06-22T02:09:50;10.23;;;5.15;;
21733;SDS011;11029;47.820;10.534;2023-06-22T02:12:21;7.60;;;5.07;;
21733;SDS011;11029;47.820;10.534;2023-06-22T02:14:51;7.88;;;5.18;;
21733;SDS011;11029;47.820;10.534;2023-06-22T02:17:19;8.20;;;5.72;;
21733;SDS011;11029;47.820;10.534;2023-06-22T02:19:46;10.10;;;6.07;;
21733;SDS011;11029;47.820;10.534;2023-06-22T02:22:13;6.72;;;5.68;;
21733;SDS011;11029;47.820;10.534;2023-06-22T02:24:42;7.75;;;5.25;;
21733;SDS011;11029;47.820;10.534;2023-06-22T02:27:08;5.90;;;4.50;;
21733;SDS011;11029;47.820;10.534;2023-06-22T02:29:36;7.82;;;5.55;;
21733;SDS011;11029;47.820;10.534;2023-06-22T02:32:03;9.70;;;5.15;;
21733;SDS011;11029;47.820;10.534;2023-06-22T02:34:31;9.95;;;5.90;;
21733;SDS011;11029;47.820;10.534;2023-06-22T02:37:00;7.63;;;5.50;;
21733;SDS011;11029;47.820;10.534;2023-06-22T02:39:27;10.65;;;6.00;;
21733;SDS011;11029;47.820;10.534;2023-06-22T02:41:54;9.15;;;5.35;;
21733;SDS011;11029;47.820;10.534;2023-06-22T02:44:21;8.32;;;5.40;;
21733;SDS011;11029;47.820;10.534;2023-06-22T02:46:48;7.97;;;5.75;;
21733;SDS011;11029;47.820;10.534;2023-06-22T02:49:16;12.95;;;5.97;;
21733;SDS011;11029;47.820;10.534;2023-06-22T02:51:45;9.18;;;5.82;;
21733;SDS011;11029;47.820;10.534;2023-06-22T02:54:15;11.02;;;5.50;;
21733;SDS011;11029;47.820;10.534;2023-06-22T02:56:44;7.78;;;5.25;;
21733;SDS011;11029;47.820;10.534;2023-06-22T02:59:10;8.30;;;5.72;;
21733;SDS011;11029;47.820;10.534;2023-06-22T03:01:38;8.15;;;5.32;;
21733;SDS011;11029;47.820;10.534;2023-06-22T03:04:16;7.63;;;4.88;;
21733;SDS011;11029;47.820;10.534;2023-06-22T03:06:42;7.72;;;5.40;;
21733;SDS011;11029;47.820;10.534;2023-06-22T03:09:09;10.13;;;5.57;;
21733;SDS011;11029;47.820;10.534;2023-06-22T03:11:37;9.32;;;5.05;;
21733;SDS011;11029;47.820;10.534;2023-06-22T03:14:03;8.88;;;4.82;;
21733;SDS011;11029;47.820;10.534;2023-06-22T03:16:30;10.07;;;5.13;;
21733;SDS011;11029;47.820;10.534;2023-06-22T03:18:57;9.57;;;5.45;;
21733;SDS011;11029;47.820;10.534;2023-06-22T03:21:27;7.88;;;4.93;;
21733;SDS011;11029;47.820;10.534;2023-06-22T03:23:55;10.02;;;5.18;;
21733;SDS011;11029;47.820;10.534;2023-06-22T03:26:22;8.07;;;5.25;;
21733;SDS011;11029;47.820;10.534;2023-06-22T03:28:50;8.60;;;5.40;;
21733;SDS011;11029;47.820;10.534;2023-06-22T03:31:16;8.68;;;5.07;;
21733;SDS011;11029;47.820;10.534;2023-06-22T03:33:48;7.43;;;5.65;;
21733;SDS011;11029;47.820;10.534;2023-06-22T03:36:16;9.10;;;5.18;;
21733;SDS011;11029;47.820;10.534;2023-06-22T03:38:47;8.27;;;5.35;;
21733;SDS011;11029;47.820;10.534;2023-06-22T03:41:15;8.52;;;5.07;;
21733;SDS011;11029;47.820;10.534;2023-06-22T03:43:42;7.32;;;4.95;;
21733;SDS011;11029;47.820;10.534;2023-06-22T03:46:09;10.50;;;5.95;;
21733;SDS011;11029;47.820;10.534;2023-06-22T03:48:36;10.82;;;5.32;;
21733;SDS011;11029;47.820;10.534;2023-06-22T03:51:03;10.02;;;5.55;;
21733;SDS011;11029;47.820;10.534;2023-06-22T03:53:30;10.00;;;5.50;;
21733;SDS011;11029;47.820;10.534;2023-06-22T03:55:57;8.60;;;5.20;;
21733;SDS011;11029;47.820;10.534;2023-06-22T03:58:24;8.48;;;5.43;;
21733;SDS011;11029;47.820;10.534;2023-06-22T04:00:51;7.90;;;4.80;;
21733;SDS011;11029;47.820;10.534;2023-06-22T04:03:19;9.40;;;5.22;;
21733;SDS011;11029;47.820;10.534;2023-06-22T04:05:46;9.68;;;6.00;;
21733;SDS011;11029;47.820;10.534;2023-06-22T04:08:15;10.70;;;5.53;;
21733;SDS011;11029;47.820;10.534;2023-06-22T04:10:42;13.50;;;6.13;;
21733;SDS011;11029;47.820;10.534;2023-06-22T04:13:09;9.48;;;5.45;;
21733;SDS011;11029;47.820;10.534;2023-06-22T04:15:36;9.57;;;5.60;;
21733;SDS011;11029;47.820;10.534;2023-06-22T04:18:03;10.00;;;5.75;;
21733;SDS011;11029;47.820;10.534;2023-06-22T04:20:31;11.18;;;6.13;;
21733;SDS011;11029;47.820;10.534;2023-06-22T04:22:58;8.88;;;5.97;;
21733;SDS011;11029;47.820;10.534;2023-06-22T04:25:25;8.23;;;5.38;;
21733;SDS011;11029;47.820;10.534;2023-06-22T04:27:52;9.25;;;5.97;;
21733;SDS011;11029;47.820;10.534;2023-06-22T04:30:19;7.63;;;5.65;;
21733;SDS011;11029;47.820;10.534;2023-06-22T04:32:46;11.90;;;5.97;;
21733;SDS011;11029;47.820;10.534;2023-06-22T04:35:22;8.25;;;5.65;;
21733;SDS011;11029;47.820;10.534;2023-06-22T04:37:53;8.95;;;5.95;;
21733;SDS011;11029;47.820;10.534;2023-06-22T04:40:24;9.35;;;6.93;;
21733;SDS011;11029;47.820;10.534;2023-06-22T04:42:52;10.45;;;5.82;;
21733;SDS011;11029;47.820;10.534;2023-06-22T04:45:20;11.68;;;6.15;;
21733;SDS011;11029;47.820;10.534;2023-06-22T04:47:47;9.82;;;5.82;;
21733;SDS011;11029;47.820;10.534;2023-06-22T04:50:14;8.27;;;6.25;;
21733;SDS011;11029;47.820;10.534;2023-06-22T04:52:41;11.15;;;5.95;;
21733;SDS011;11029;47.820;10.534;2023-06-22T04:55:08;8.95;;;5.78;;
21733;SDS011;11029;47.820;10.534;2023-06-22T04:57:35;9.27;;;5.68;;
21733;SDS011;11029;47.820;10.534;2023-06-22T05:00:05;8.60;;;6.18;;
21733;SDS011;11029;47.820;10.534;2023-06-22T05:02:39;13.30;;;5.93;;
21733;SDS011;11029;47.820;10.534;2023-06-22T05:05:06;10.88;;;5.78;;
21733;SDS011;11029;47.820;10.534;2023-06-22T05:07:34;6.97;;;5.78;;
21733;SDS011;11029;47.820;10.534;2023-06-22T05:10:01;13.40;;;6.57;;
21733;SDS011;11029;47.820;10.534;2023-06-22T05:12:29;8.82;;;5.95;;
21733;SDS011;11029;47.820;10.534;2023-06-22T05:14:56;11.57;;;6.68;;
21733;SDS011;11029;47.820;10.534;2023-06-22T05:17:23;9.57;;;6.43;;
21733;SDS011;11029;47.820;10.534;2023-06-22T05:19:51;11.43;;;7.22;;
21733;SDS011;11029;47.820;10.534;2023-06-22T05:22:18;11.27;;;6.63;;
21733;SDS011;11029;47.820;10.534;2023-06-22T05:24:45;13.40;;;7.63;;
21733;SDS011;11029;47.820;10.534;2023-06-22T05:27:12;10.20;;;6.55;;
21733;SDS011;11029;47.820;10.534;2023-06-22T05:29:39;8.32;;;6.65;;
21733;SDS011;11029;47.820;10.534;2023-06-22T05:32:06;11.38;;;7.20;;
21733;SDS011;11029;47.820;10.534;2023-06-22T05:34:33;10.18;;;7.55;;
21733;SDS011;11029;47.820;10.534;2023-06-22T05:37:00;13.50;;;8.43;;
21733;SDS011;11029;47.820;10.534;2023-06-22T05:39:27;12.07;;;7.18;;
21733;SDS011;11029;47.820;10.534;2023-06-22T05:41:53;11.93;;;7.78;;
21733;SDS011;11029;47.820;10.534;2023-06-22T05:44:20;12.50;;;7.03;;
21733;SDS011;11029;47.820;10.534;2023-06-22T05:46:47;11.77;;;7.43;;
21733;SDS011;11029;47.820;10.534;2023-06-22T05:49:15;10.98;;;7.32;;
21733;SDS011;11029;47.820;10.534;2023-06-22T05:51:42;11.30;;;7.15;;
21733;SDS011;11029;47.820;10.534;2023-06-22T05:54:09;7.80;;;6.97;;
21733;SDS011;11029;47.820;10.534;2023-06-22T05:56:36;19.83;;;8.73;;
21733;SDS011;11029;47.820;10.534;2023-06-22T05:59:03;10.27;;;7.50;;
21733;SDS011;11029;47.820;10.534;2023-06-22T06:01:30;11.77;;;7.57;;
21733;SDS011;11029;47.820;10.534;2023-06-22T06:04:02;12.05;;;7.00;;
21733;SDS011;11029;47.820;10.534;2023-06-22T06:06:34;14.30;;;8.50;;
21733;SDS011;11029;47.820;10.534;2023-06-22T06:09:04;11.30;;;7.60;;
21733;SDS011;11029;47.820;10.534;2023-06-22T06:11:31;10.70;;;7.00;;
21733;SDS011;11029;47.820;10.534;2023-06-22T06:13:57;15.40;;;8.05;;
21733;SDS011;11029;47.820;10.534;2023-06-22T06:16:24;14.20;;;7.88;;
21733;SDS011;11029;47.820;10.534;2023-06-22T06:18:51;11.43;;;7.82;;
21733;SDS011;11029;47.820;10.534;2023-06-22T06:21:19;17.33;;;8.50;;
21733;SDS011;11029;47.820;10.534;2023-06-22T06:23:46;13.15;;;8.45;;
21733;SDS011;11029;47.820;10.534;2023-06-22T06:26:14;15.48;;;8.55;;
21733;SDS011;11029;47.820;10.534;2023-06-22T06:28:43;13.50;;;8.07;;
21733;SDS011;11029;47.820;10.534;2023-06-22T06:31:10;13.73;;;7.63;;
21733;SDS011;11029;47.820;10.534;2023-06-22T06:33:38;14.80;;;7.43;;
21733;SDS011;11029;47.820;10.534;2023-06-22T06:36:05;14.93;;;7.68;;
21733;SDS011;11029;47.820;10.534;2023-06-22T06:38:32;11.93;;;7.20;;
21733;SDS011;11029;47.820;10.534;2023-06-22T06:40:58;12.25;;;6.72;;
21733;SDS011;11029;47.820;10.534;2023-06-22T06:43:25;15.93;;;7.70;;
21733;SDS011;11029;47.820;10.534;2023-06-22T06:45:52;12.73;;;7.00;;
21733;SDS011;11029;47.820;10.534;2023-06-22T06:48:19;14.95;;;7.22;;
21733;SDS011;11029;47.820;10.534;2023-06-22T06:50:46;16.55;;;6.88;;
21733;SDS011;11029;47.820;10.534;2023-06-22T06:53:13;16.52;;;6.60;;
21733;SDS011;11029;47.820;10.534;2023-06-22T06:55:40;11.75;;;6.53;;
21733;SDS011;11029;47.820;10.534;2023-06-22T06:58:07;11.70;;;5.85;;
21733;SDS011;11029;47.820;10.534;2023-06-22T07:00:36;10.82;;;6.50;;
21733;SDS011;11029;47.820;10.534;2023-06-22T07:03:03;11.90;;;6.35;;
21733;SDS011;11029;47.820;10.534;2023-06-22T07:05:30;12.27;;;6.38;;
21733;SDS011;11029;47.820;10.534;2023-06-22T07:07:57;11.50;;;6.13;;
21733;SDS011;11029;47.820;10.534;2023-06-22T07:10:23;11.43;;;5.80;;
21733;SDS011;11029;47.820;10.534;2023-06-22T07:12:50;12.88;;;6.18;;
21733;SDS011;11029;47.820;10.534;2023-06-22T07:15:17;11.25;;;6.53;;
21733;SDS011;11029;47.820;10.534;2023-06-22T07:17:44;14.40;;;6.32;;
21733;SDS011;11029;47.820;10.534;2023-06-22T07:20:11;13.05;;;6.13;;
21733;SDS011;11029;47.820;10.534;2023-06-22T07:22:39;12.80;;;6.53;;
21733;SDS011;11029;47.820;10.534;2023-06-22T07:25:07;19.88;;;6.95;;
21733;SDS011;11029;47.820;10.534;2023-06-22T07:27:45;13.43;;;6.85;;
21733;SDS011;11029;47.820;10.534;2023-06-22T07:30:22;12.32;;;6.45;;
21733;SDS011;11029;47.820;10.534;2023-06-22T07:32:49;13.60;;;6.68;;
21733;SDS011;11029;47.820;10.534;2023-06-22T07:35:16;11.18;;;6.10;;
21733;SDS011;11029;47.820;10.534;2023-06-22T07:37:44;12.18;;;5.82;;
21733;SDS011;11029;47.820;10.534;2023-06-22T07:40:11;9.88;;;5.88;;
21733;SDS011;11029;47.820;10.534;2023-06-22T07:42:38;11.48;;;6.07;;
21733;SDS011;11029;47.820;10.534;2023-06-22T07:45:05;14.38;;;6.40;;
21733;SDS011;11029;47.820;10.534;2023-06-22T07:47:34;15.07;;;6.25;;
21733;SDS011;11029;47.820;10.534;2023-06-22T07:50:02;10.88;;;6.43;;
21733;SDS011;11029;47.820;10.534;2023-06-22T07:52:30;12.95;;;6.00;;
21733;SDS011;11029;47.820;10.534;2023-06-22T07:54:57;14.52;;;5.95;;
21733;SDS011;11029;47.820;10.534;2023-06-22T07:57:24;13.52;;;6.50;;
21733;SDS011;11029;47.820;10.534;2023-06-22T08:00:00;10.43;;;5.47;;
21733;SDS011;11029;47.820;10.534;2023-06-22T08:02:37;11.65;;;5.70;;
21733;SDS011;11029;47.820;10.534;2023-06-22T08:05:05;14.57;;;6.78;;
21733;SDS011;11029;47.820;10.534;2023-06-22T08:07:54;10.80;;;6.00;;
21733;SDS011;11029;47.820;10.534;2023-06-22T08:10:21;14.80;;;5.90;;
21733;SDS011;11029;47.820;10.534;2023-06-22T08:12:48;12.50;;;5.80;;
21733;SDS011;11029;47.820;10.534;2023-06-22T08:15:15;10.30;;;5.65;;
21733;SDS011;11029;47.820;10.534;2023-06-22T08:17:41;9.23;;;5.63;;
21733;SDS011;11029;47.820;10.534;2023-06-22T08:20:09;14.35;;;5.70;;
21733;SDS011;11029;47.820;10.534;2023-06-22T08:22:40;13.75;;;6.03;;
21733;SDS011;11029;47.820;10.534;2023-06-22T08:25:08;11.30;;;5.50;;
21733;SDS011;11029;47.820;10.534;2023-06-22T08:27:36;9.82;;;5.57;;
21733;SDS011;11029;47.820;10.534;2023-06-22T08:30:03;11.77;;;6.25;;
21733;SDS011;11029;47.820;10.534;2023-06-22T08:32:30;14.77;;;6.32;;
21733;SDS011;11029;47.820;10.534;2023-06-22T08:34:59;10.93;;;6.15;;
21733;SDS011;11029;47.820;10.534;2023-06-22T08:37:26;13.35;;;6.20;;
21733;SDS011;11029;47.820;10.534;2023-06-22T08:39:58;14.60;;;6.63;;
21733;SDS011;11029;47.820;10.534;2023-06-22T08:42:27;12.00;;;6.32;;
21733;SDS011;11029;47.820;10.534;2023-06-22T08:44:54;13.27;;;6.18;;
21733;SDS011;11029;47.820;10.534;2023-06-22T08:47:21;11.35;;;6.00;;
21733;SDS011;11029;47.820;10.534;2023-06-22T08:49:49;14.18;;;6.35;;
21733;SDS011;11029;47.820;10.534;2023-06-22T08:52:17;11.50;;;6.50;;
21733;SDS011;11029;47.820;10.534;2023-06-22T08:54:44;14.98;;;7.13;;
21733;SDS011;11029;47.820;10.534;2023-06-22T08:57:11;13.77;;;6.45;;
21733;SDS011;11029;47.820;10.534;2023-06-22T08:59:38;10.82;;;6.43;;
21733;SDS011;11029;47.820;10.534;2023-06-22T09:02:06;15.82;;;6.50;;
21733;SDS011;11029;47.820;10.534;2023-06-22T09:04:33;17.73;;;7.30;;
21733;SDS011;11029;47.820;10.534;2023-06-22T09:07:03;15.10;;;6.30;;
21733;SDS011;11029;47.820;10.534;2023-06-22T09:09:30;15.43;;;6.47;;
21733;SDS011;11029;47.820;10.534;2023-06-22T09:11:57;22.90;;;7.70;;
21733;SDS011;11029;47.820;10.534;2023-06-22T09:14:24;16.15;;;7.13;;
21733;SDS011;11029;47.820;10.534;2023-06-22T09:16:50;16.20;;;6.00;;
21733;SDS011;11029;47.820;10.534;2023-06-22T09:19:17;10.30;;;6.32;;
21733;SDS011;11029;47.820;10.534;2023-06-22T09:21:44;16.20;;;6.75;;
21733;SDS011;11029;47.820;10.534;2023-06-22T09:24:10;13.60;;;6.45;;
21733;SDS011;11029;47.820;10.534;2023-06-22T09:26:37;23.00;;;7.35;;
21733;SDS011;11029;47.820;10.534;2023-06-22T09:29:05;16.00;;;7.18;;
21733;SDS011;11029;47.820;10.534;2023-06-22T09:31:32;12.43;;;7.45;;
21733;SDS011;11029;47.820;10.534;2023-06-22T09:33:59;13.45;;;6.43;;
21733;SDS011;11029;47.820;10.534;2023-06-22T09:36:26;14.20;;;7.07;;
21733;SDS011;11029;47.820;10.534;2023-06-22T09:38:52;12.38;;;6.40;;
21733;SDS011;11029;47.820;10.534;2023-06-22T09:41:22;14.32;;;6.55;;
21733;SDS011;11029;47.820;10.534;2023-06-22T09:43:49;16.67;;;7.25;;
21733;SDS011;11029;47.820;10.534;2023-06-22T09:46:19;13.50;;;6.25;;
21733;SDS011;11029;47.820;10.534;2023-06-22T09:48:48;14.13;;;6.97;;
21733;SDS011;11029;47.820;10.534;2023-06-22T09:51:14;17.40;;;7.32;;
21733;SDS011;11029;47.820;10.534;2023-06-22T09:53:43;12.07;;;6.85;;
21733;SDS011;11029;47.820;10.534;2023-06-22T09:56:10;10.43;;;6.35;;
21733;SDS011;11029;47.820;10.534;2023-06-22T09:58:44;14.77;;;6.47;;
21733;SDS011;11029;47.820;10.534;2023-06-22T10:01:18;13.07;;;7.20;;
21733;SDS011;11029;47.820;10.534;2023-06-22T10:03:46;15.25;;;6.82;;
21733;SDS011;11029;47.820;10.534;2023-06-22T10:06:14;14.80;;;6.80;;
21733;SDS011;11029;47.820;10.534;2023-06-22T10:08:40;19.15;;;7.35;;
21733;SDS011;11029;47.820;10.534;2023-06-22T10:11:07;12.93;;;6.70;;
21733;SDS011;11029;47.820;10.534;2023-06-22T10:13:34;13.85;;;6.13;;
21733;SDS011;11029;47.820;10.534;2023-06-22T10:16:01;16.08;;;6.40;;
21733;SDS011;11029;47.820;10.534;2023-06-22T10:18:27;15.18;;;6.65;;
21733;SDS011;11029;47.820;10.534;2023-06-22T10:20:54;18.92;;;6.45;;
21733;SDS011;11029;47.820;10.534;2023-06-22T10:23:21;17.45;;;6.85;;
21733;SDS011;11029;47.820;10.534;2023-06-22T10:25:48;16.30;;;6.47;;
21733;SDS011;11029;47.820;10.534;2023-06-22T10:28:15;13.70;;;6.45;;
21733;SDS011;11029;47.820;10.534;2023-06-22T10:30:42;17.10;;;6.57;;
21733;SDS011;11029;47.820;10.534;2023-06-22T10:33:10;23.40;;;7.43;;
21733;SDS011;11029;47.820;10.534;2023-06-22T10:35:38;17.50;;;7.13;;
21733;SDS011;11029;47.820;10.534;2023-06-22T10:38:05;17.85;;;6.72;;
21733;SDS011;11029;47.820;10.534;2023-06-22T10:40:32;15.85;;;6.05;;
21733;SDS011;11029;47.820;10.534;2023-06-22T10:42:59;14.52;;;7.10;;
21733;SDS011;11029;47.820;10.534;2023-06-22T10:45:26;13.98;;;6.75;;
21733;SDS011;11029;47.820;10.534;2023-06-22T10:47:54;18.38;;;6.22;;
21733;SDS011;11029;47.820;10.534;2023-06-22T10:50:21;13.38;;;7.00;;
21733;SDS011;11029;47.820;10.534;2023-06-22T10:52:50;19.58;;;6.60;;
21733;SDS011;11029;47.820;10.534;2023-06-22T10:55:17;11.93;;;7.22;;
21733;SDS011;11029;47.820;10.534;2023-06-22T10:57:44;15.07;;;6.13;;
21733;SDS011;11029;47.820;10.534;2023-06-22T11:00:13;13.68;;;6.28;;
21733;SDS011;11029;47.820;10.534;2023-06-22T11:02:42;15.75;;;5.95;;
21733;SDS011;11029;47.820;10.534;2023-06-22T11:05:09;12.93;;;5.85;;
21733;SDS011;11029;47.820;10.534;2023-06-22T11:07:37;14.70;;;6.20;;
21733;SDS011;11029;47.820;10.534;2023-06-22T11:10:09;16.45;;;5.85;;
21733;SDS011;11029;47.820;10.534;2023-06-22T11:12:37;19.25;;;6.10;;
21733;SDS011;11029;47.820;10.534;2023-06-22T11:15:04;17.33;;;6.32;;
21733;SDS011;11029;47.820;10.534;2023-06-22T11:17:31;18.75;;;6.65;;
21733;SDS011;11029;47.820;10.534;2023-06-22T11:19:58;17.13;;;5.97;;
21733;SDS011;11029;47.820;10.534;2023-06-22T11:22:26;16.02;;;6.00;;
21733;SDS011;11029;47.820;10.534;2023-06-22T11:24:53;13.27;;;5.28;;
21733;SDS011;11029;47.820;10.534;2023-06-22T11:27:20;15.38;;;5.15;;
21733;SDS011;11029;47.820;10.534;2023-06-22T11:29:47;16.17;;;5.18;;
21733;SDS011;11029;47.820;10.534;2023-06-22T11:32:14;15.15;;;5.20;;
21733;SDS011;11029;47.820;10.534;2023-06-22T11:34:41;13.38;;;5.75;;
21733;SDS011;11029;47.820;10.534;2023-06-22T11:37:08;12.77;;;5.00;;
21733;SDS011;11029;47.820;10.534;2023-06-22T11:39:34;18.50;;;5.72;;
21733;SDS011;11029;47.820;10.534;2023-06-22T11:42:08;13.45;;;4.97;;
21733;SDS011;11029;47.820;10.534;2023-06-22T11:44:36;12.68;;;4.63;;
21733;SDS011;11029;47.820;10.534;2023-06-22T11:47:03;14.93;;;5.07;;
21733;SDS011;11029;47.820;10.534;2023-06-22T11:49:30;17.48;;;5.50;;
21733;SDS011;11029;47.820;10.534;2023-06-22T11:51:58;13.45;;;5.10;;
21733;SDS011;11029;47.820;10.534;2023-06-22T11:54:25;17.60;;;5.90;;
21733;SDS011;11029;47.820;10.534;2023-06-22T11:56:52;17.20;;;5.38;;
21733;SDS011;11029;47.820;10.534;2023-06-22T11:59:19;12.07;;;5.63;;
21733;SDS011;11029;47.820;10.534;2023-06-22T12:01:47;19.00;;;5.57;;
21733;SDS011;11029;47.820;10.534;2023-06-22T12:04:14;20.10;;;5.45;;
21733;SDS011;11029;47.820;10.534;2023-06-22T12:06:41;17.52;;;5.57;;
21733;SDS011;11029;47.820;10.534;2023-06-22T12:09:09;17.08;;;5.57;;
21733;SDS011;11029;47.820;10.534;2023-06-22T12:11:36;17.95;;;5.60;;
21733;SDS011;11029;47.820;10.534;2023-06-22T12:14:03;16.60;;;5.18;;
21733;SDS011;11029;47.820;10.534;2023-06-22T12:16:30;16.95;;;5.95;;
21733;SDS011;11029;47.820;10.534;2023-06-22T12:18:57;17.45;;;5.50;;
21733;SDS011;11029;47.820;10.534;2023-06-22T12:21:24;15.77;;;5.20;;
21733;SDS011;11029;47.820;10.534;2023-06-22T12:23:51;14.10;;;6.00;;
21733;SDS011;11029;47.820;10.534;2023-06-22T12:26:17;14.55;;;5.93;;
21733;SDS011;11029;47.820;10.534;2023-06-22T12:28:44;16.85;;;5.60;;
21733;SDS011;11029;47.820;10.534;2023-06-22T12:31:11;13.85;;;5.18;;
21733;SDS011;11029;47.820;10.534;2023-06-22T12:33:38;20.27;;;5.40;;
21733;SDS011;11029;47.820;10.534;2023-06-22T12:36:05;15.23;;;5.13;;
21733;SDS011;11029;47.820;10.534;2023-06-22T12:38:32;13.52;;;4.60;;
21733;SDS011;11029;47.820;10.534;2023-06-22T12:40:59;9.07;;;4.70;;
21733;SDS011;11029;47.820;10.534;2023-06-22T12:43:26;14.45;;;4.65;;
21733;SDS011;11029;47.820;10.534;2023-06-22T12:45:53;12.15;;;4.38;;
21733;SDS011;11029;47.820;10.534;2023-06-22T12:48:21;11.80;;;5.18;;
21733;SDS011;11029;47.820;10.534;2023-06-22T12:50:49;15.98;;;5.15;;
21733;SDS011;11029;47.820;10.534;2023-06-22T12:53:15;15.95;;;5.20;;
21733;SDS011;11029;47.820;10.534;2023-06-22T12:55:42;16.58;;;5.38;;
21733;SDS011;11029;47.820;10.534;2023-06-22T12:58:09;15.32;;;4.65;;
21733;SDS011;11029;47.820;10.534;2023-06-22T13:00:36;12.90;;;4.40;;
21733;SDS011;11029;47.820;10.534;2023-06-22T13:03:05;15.75;;;4.32;;
21733;SDS011;11029;47.820;10.534;2023-06-22T13:05:32;19.13;;;5.10;;
21733;SDS011;11029;47.820;10.534;2023-06-22T13:08:01;21.33;;;5.10;;
21733;SDS011;11029;47.820;10.534;2023-06-22T13:10:29;19.17;;;4.50;;
21733;SDS011;11029;47.820;10.534;2023-06-22T13:12:56;16.48;;;4.57;;
21733;SDS011;11029;47.820;10.534;2023-06-22T13:15:27;12.30;;;4.20;;
21733;SDS011;11029;47.820;10.534;2023-06-22T13:17:55;17.00;;;4.70;;
21733;SDS011;11029;47.820;10.534;2023-06-22T13:20:22;9.18;;;4.32;;
21733;SDS011;11029;47.820;10.534;2023-06-22T13:22:49;19.38;;;4.72;;
21733;SDS011;11029;47.820;10.534;2023-06-22T13:25:16;19.13;;;4.55;;
21733;SDS011;11029;47.820;10.534;2023-06-22T13:27:45;14.73;;;4.72;;
21733;SDS011;11029;47.820;10.534;2023-06-22T13:30:12;12.88;;;4.80;;
21733;SDS011;11029;47.820;10.534;2023-06-22T13:32:40;15.88;;;4.57;;
21733;SDS011;11029;47.820;10.534;2023-06-22T13:35:09;9.85;;;4.55;;
21733;SDS011;11029;47.820;10.534;2023-06-22T13:37:36;14.00;;;4.80;;
21733;SDS011;11029;47.820;10.534;2023-06-22T13:40:04;15.80;;;4.78;;
21733;SDS011;11029;47.820;10.534;2023-06-22T13:42:33;17.30;;;4.97;;
21733;SDS011;11029;47.820;10.534;2023-06-22T13:45:00;17.92;;;4.82;;
21733;SDS011;11029;47.820;10.534;2023-06-22T13:47:27;15.20;;;4.95;;
21733;SDS011;11029;47.820;10.534;2023-06-22T13:49:56;13.55;;;4.82;;
21733;SDS011;11029;47.820;10.534;2023-06-22T13:52:24;13.95;;;4.78;;
21733;SDS011;11029;47.820;10.534;2023-06-22T13:54:51;12.77;;;4.60;;
21733;SDS011;11029;47.820;10.534;2023-06-22T13:57:17;18.60;;;4.93;;
21733;SDS011;11029;47.820;10.534;2023-06-22T13:59:44;15.05;;;4.70;;
21733;SDS011;11029;47.820;10.534;2023-06-22T14:02:11;15.10;;;5.18;;
21733;SDS011;11029;47.820;10.534;2023-06-22T14:04:38;11.45;;;5.28;;
21733;SDS011;11029;47.820;10.534;2023-06-22T14:07:05;12.93;;;4.20;;
21733;SDS011;11029;47.820;10.534;2023-06-22T14:09:31;13.70;;;4.85;;
21733;SDS011;11029;47.820;10.534;2023-06-22T14:12:02;13.15;;;4.60;;
21733;SDS011;11029;47.820;10.534;2023-06-22T14:16:57;11.68;;;4.07;;
21733;SDS011;11029;47.820;10.534;2023-06-22T14:19:24;11.98;;;4.35;;
21733;SDS011;11029;47.820;10.534;2023-06-22T14:21:51;13.07;;;4.55;;
21733;SDS011;11029;47.820;10.534;2023-06-22T14:24:18;14.88;;;4.78;;
21733;SDS011;11029;47.820;10.534;2023-06-22T14:26:46;14.63;;;5.00;;
21733;SDS011;11029;47.820;10.534;2023-06-22T14:29:13;12.90;;;5.18;;
21733;SDS011;11029;47.820;10.534;2023-06-22T14:31:39;17.75;;;4.70;;
21733;SDS011;11029;47.820;10.534;2023-06-22T14:34:06;17.52;;;4.80;;
21733;SDS011;11029;47.820;10.534;2023-06-22T14:36:33;14.77;;;4.82;;
21733;SDS011;11029;47.820;10.534;2023-06-22T14:39:00;13.13;;;4.40;;